createdAt,value
2023-02-18T00:00:11.860Z,2.83
2023-02-18T00:01:11.882Z,2.83
2023-02-18T00:02:11.887Z,2.72
2023-02-18T00:03:11.887Z,2.83
2023-02-18T00:04:11.864Z,2.83
2023-02-18T00:05:11.853Z,2.83
2023-02-18T00:06:11.866Z,2.39
2023-02-18T00:07:11.874Z,2.56
2023-02-18T00:08:11.873Z,2.11
2023-02-18T00:09:11.858Z,2.28
2023-02-18T00:10:11.853Z,2.72
2023-02-18T00:11:11.865Z,2.83
2023-02-18T00:12:11.876Z,2.56
2023-02-18T00:13:11.868Z,2.56
2023-02-18T00:14:11.891Z,2.28
2023-02-18T00:15:11.880Z,2.72
2023-02-18T00:16:12.037Z,2.72
2023-02-18T00:17:11.871Z,2.83
2023-02-18T00:18:11.874Z,2.83
2023-02-18T00:19:11.894Z,2.56
2023-02-18T00:20:11.871Z,2.28
2023-02-18T00:21:11.871Z,2.56
2023-02-18T00:22:11.890Z,2.56
2023-02-18T00:23:11.879Z,2.72
2023-02-18T00:24:11.880Z,2.72
2023-02-18T00:25:11.883Z,2.72
2023-02-18T00:26:11.879Z,2.83
2023-02-18T00:27:11.874Z,2.83
2023-02-18T00:28:11.872Z,2.83
2023-02-18T00:29:11.872Z,2.39
2023-02-18T00:30:11.976Z,2.72
2023-02-18T00:31:12.008Z,2.72
2023-02-18T00:32:11.934Z,2.56
2023-02-18T00:33:11.879Z,2.72
2023-02-18T00:34:11.884Z,2.56
2023-02-18T00:35:11.918Z,2.72
2023-02-18T00:36:11.884Z,2.72
2023-02-18T00:37:11.883Z,2.83
2023-02-18T00:38:11.885Z,2.72
2023-02-18T00:39:11.895Z,2.83
2023-02-18T00:40:11.885Z,2.83
2023-02-18T00:41:11.890Z,2.83
2023-02-18T00:42:11.894Z,2.72
2023-02-18T00:43:11.894Z,3
2023-02-18T00:44:11.882Z,2.72
2023-02-18T00:45:11.887Z,2.28
2023-02-18T00:46:11.917Z,2.39
2023-02-18T00:47:11.893Z,2.39
2023-02-18T00:48:11.889Z,2.39
2023-02-18T00:49:11.897Z,2.39
2023-02-18T00:50:11.898Z,2.56
2023-02-18T00:51:11.916Z,2.72
2023-02-18T00:52:11.915Z,2.72
2023-02-18T00:53:11.902Z,2.39
2023-02-18T00:54:11.890Z,2.39
2023-02-18T00:55:11.882Z,2.28
2023-02-18T00:56:11.896Z,2.28
2023-02-18T00:57:11.895Z,2.28
2023-02-18T00:58:11.902Z,2.56
2023-02-18T00:59:11.901Z,2.28
2023-02-18T01:00:11.904Z,2
2023-02-18T01:01:11.904Z,2.56
2023-02-18T01:02:11.894Z,2.72
2023-02-18T01:03:11.902Z,2.83
2023-02-18T01:04:11.901Z,2.83
2023-02-18T01:05:11.896Z,2.72
2023-02-18T01:06:11.899Z,2.83
2023-02-18T01:07:11.928Z,2.72
2023-02-18T01:08:11.916Z,2.39
2023-02-18T01:09:11.900Z,2.72
2023-02-18T01:10:11.902Z,2.39
2023-02-18T01:11:11.903Z,2.39
2023-02-18T01:12:11.906Z,2.39
2023-02-18T01:13:11.925Z,2.28
2023-02-18T01:14:11.917Z,2.39
2023-02-18T01:15:11.911Z,2.11
2023-02-18T01:16:12.131Z,2.11
2023-02-18T01:17:11.917Z,2.28
2023-02-18T01:18:11.906Z,2.39
2023-02-18T01:19:11.911Z,2.39
2023-02-18T01:20:11.905Z,2.39
2023-02-18T01:21:11.907Z,2.28
2023-02-18T01:22:11.906Z,2.11
2023-02-18T01:23:11.924Z,2.39
2023-02-18T01:24:11.902Z,2.39
2023-02-18T01:25:11.932Z,2.11
2023-02-18T01:26:11.926Z,2.39
2023-02-18T01:27:11.914Z,2.39
2023-02-18T01:28:11.914Z,2.39
2023-02-18T01:29:11.913Z,2.56
2023-02-18T01:30:11.943Z,2.72
2023-02-18T01:31:12.208Z,2.28
2023-02-18T01:32:12.012Z,2.72
2023-02-18T01:33:11.931Z,2.39
2023-02-18T01:34:11.922Z,2.11
2023-02-18T01:35:11.918Z,2.11
2023-02-18T01:36:12.113Z,2.39
2023-02-18T01:37:11.913Z,2.11
2023-02-18T01:38:11.913Z,2.28
2023-02-18T01:39:11.937Z,2.28
2023-02-18T01:40:11.922Z,2.39
2023-02-18T01:41:11.907Z,2.11
2023-02-18T01:42:11.909Z,2.28
2023-02-18T01:43:11.910Z,2.39
2023-02-18T01:44:11.908Z,2.39
2023-02-18T01:45:11.915Z,2.39
2023-02-18T01:46:12.000Z,2.39
2023-02-18T01:47:11.900Z,2.83
2023-02-18T01:48:11.917Z,2.39
2023-02-18T01:49:11.921Z,2.11
2023-02-18T01:50:11.910Z,2.11
2023-02-18T01:51:11.921Z,2.28
2023-02-18T01:52:11.917Z,2.39
2023-02-18T01:53:11.935Z,2.11
2023-02-18T01:54:11.929Z,2.39
2023-02-18T01:55:11.930Z,2.39
2023-02-18T01:56:11.921Z,2.39
2023-02-18T01:57:11.937Z,2.39
2023-02-18T01:58:11.910Z,2.72
2023-02-18T01:59:11.920Z,2.56
2023-02-18T02:00:11.910Z,2.28
2023-02-18T02:01:12.005Z,2.28
2023-02-18T02:02:11.972Z,2.56
2023-02-18T02:03:11.916Z,2.56
2023-02-18T02:04:11.917Z,2.72
2023-02-18T02:05:11.904Z,2.72
2023-02-18T02:06:11.916Z,2.72
2023-02-18T02:07:11.932Z,2.56
2023-02-18T02:08:11.911Z,2.56
2023-02-18T02:09:11.917Z,2.28
2023-02-18T02:10:11.915Z,2.56
2023-02-18T02:11:11.937Z,2.39
2023-02-18T02:12:11.914Z,2.56
2023-02-18T02:13:11.923Z,2.56
2023-02-18T02:14:11.916Z,2.83
2023-02-18T02:15:11.918Z,2.83
2023-02-18T02:16:11.977Z,2.39
2023-02-18T02:17:11.910Z,2.39
2023-02-18T02:18:11.913Z,2.56
2023-02-18T02:19:11.926Z,2.39
2023-02-18T02:20:11.913Z,2.56
2023-02-18T02:21:11.923Z,2.11
2023-02-18T02:22:11.911Z,2.28
2023-02-18T02:23:11.914Z,2.28
2023-02-18T02:24:11.944Z,2.11
2023-02-18T02:25:11.925Z,1.83
2023-02-18T02:26:11.923Z,2.11
2023-02-18T02:27:11.958Z,1.83
2023-02-18T02:28:11.939Z,2
2023-02-18T02:29:11.922Z,2
2023-02-18T02:30:11.949Z,2
2023-02-18T02:31:12.035Z,2
2023-02-18T02:32:11.937Z,2
2023-02-18T02:33:11.934Z,2.28
2023-02-18T02:34:11.936Z,2.11
2023-02-18T02:35:11.929Z,2
2023-02-18T02:36:11.926Z,2.28
2023-02-18T02:37:11.938Z,2
2023-02-18T02:38:11.940Z,2
2023-02-18T02:39:11.933Z,2
2023-02-18T02:40:11.935Z,1.83
2023-02-18T02:41:11.949Z,1.83
2023-02-18T02:42:11.948Z,2.11
2023-02-18T02:43:11.966Z,2.11
2023-02-18T02:44:11.934Z,2.11
2023-02-18T02:45:11.940Z,1.83
2023-02-18T02:46:12.286Z,2
2023-02-18T02:47:11.940Z,2.28
2023-02-18T02:48:11.939Z,2.11
2023-02-18T02:49:11.969Z,2.28
2023-02-18T02:50:11.945Z,2.39
2023-02-18T02:51:11.981Z,2.39
2023-02-18T02:52:11.945Z,2.28
2023-02-18T02:53:11.948Z,2.39
2023-02-18T02:54:11.944Z,2.11
2023-02-18T02:55:11.956Z,2.11
2023-02-18T02:56:11.945Z,2.28
2023-02-18T02:57:11.960Z,2.11
2023-02-18T02:58:11.960Z,2.11
2023-02-18T02:59:12.016Z,2
2023-02-18T03:00:11.951Z,1.72
2023-02-18T03:01:12.004Z,2.28
2023-02-18T03:02:11.955Z,2.39
2023-02-18T03:03:12.023Z,2.56
2023-02-18T03:04:11.960Z,2.28
2023-02-18T03:05:11.947Z,2.28
2023-02-18T03:06:11.946Z,2.39
2023-02-18T03:07:11.962Z,2.39
2023-02-18T03:08:11.969Z,2.28
2023-02-18T03:09:11.971Z,2.28
2023-02-18T03:10:11.970Z,2.28
2023-02-18T03:11:11.958Z,2.11
2023-02-18T03:12:11.956Z,2.11
2023-02-18T03:13:11.971Z,2.28
2023-02-18T03:14:11.971Z,2.28
2023-02-18T03:15:11.993Z,2.28
2023-02-18T03:16:12.139Z,2.11
2023-02-18T03:17:11.976Z,2.11
2023-02-18T03:18:11.983Z,2.28
2023-02-18T03:19:11.981Z,2.11
2023-02-18T03:20:11.980Z,2
2023-02-18T03:21:11.984Z,2
2023-02-18T03:22:11.977Z,2
2023-02-18T03:23:11.977Z,1.83
2023-02-18T03:24:11.976Z,1.83
2023-02-18T03:25:11.979Z,2
2023-02-18T03:26:12.009Z,1.83
2023-02-18T03:27:11.976Z,2
2023-02-18T03:28:11.984Z,2
2023-02-18T03:29:11.982Z,1.83
2023-02-18T03:30:12.039Z,1.72
2023-02-18T03:31:12.041Z,2
2023-02-18T03:32:12.062Z,1.72
2023-02-18T03:33:11.975Z,2
2023-02-18T03:34:11.995Z,2.11
2023-02-18T03:35:11.982Z,2
2023-02-18T03:36:12.002Z,2
2023-02-18T03:37:12.003Z,1.83
2023-02-18T03:38:11.996Z,2
2023-02-18T03:39:11.998Z,2
2023-02-18T03:40:12.009Z,2
2023-02-18T03:41:11.997Z,2
2023-02-18T03:42:11.997Z,1.83
2023-02-18T03:43:11.991Z,2
2023-02-18T03:44:12.008Z,1.83
2023-02-18T03:45:11.997Z,1.72
2023-02-18T03:46:12.288Z,2
2023-02-18T03:47:12.065Z,1.83
2023-02-18T03:48:12.016Z,1.83
2023-02-18T03:49:12.015Z,1.83
2023-02-18T03:50:12.032Z,1.83
2023-02-18T03:51:12.008Z,1.83
2023-02-18T03:52:12.000Z,1.72
2023-02-18T03:53:12.007Z,2
2023-02-18T03:54:12.012Z,1.72
2023-02-18T03:55:12.023Z,1.56
2023-02-18T03:56:11.999Z,1.56
2023-02-18T03:57:12.006Z,1.28
2023-02-18T03:58:12.015Z,1.56
2023-02-18T03:59:12.014Z,1.56
2023-02-18T04:00:12.012Z,1.28
2023-02-18T04:01:12.121Z,1.28
2023-02-18T04:02:12.031Z,1.28
2023-02-18T04:03:12.030Z,1.11
2023-02-18T04:04:12.058Z,1.11
2023-02-18T04:05:12.016Z,1.11
2023-02-18T04:06:12.020Z,1.11
2023-02-18T04:07:12.008Z,1.56
2023-02-18T04:08:12.010Z,1.28
2023-02-18T04:09:12.023Z,1.11
2023-02-18T04:10:12.034Z,1.56
2023-02-18T04:11:12.020Z,1.56
2023-02-18T04:12:12.012Z,1
2023-02-18T04:13:12.006Z,1.28
2023-02-18T04:14:12.020Z,1.56
2023-02-18T04:15:12.019Z,1.56
2023-02-18T04:16:12.042Z,1.83
2023-02-18T04:17:12.019Z,1.56
2023-02-18T04:18:12.070Z,1.44
2023-02-18T04:19:12.048Z,0.83
2023-02-18T04:20:12.021Z,1.33
2023-02-18T04:21:12.042Z,1.28
2023-02-18T04:22:12.027Z,1
2023-02-18T04:23:12.022Z,1.28
2023-02-18T04:24:12.035Z,1.72
2023-02-18T04:25:12.025Z,1.72
2023-02-18T04:26:12.021Z,1.28
2023-02-18T04:27:12.026Z,1.28
2023-02-18T04:28:12.028Z,1.11
2023-02-18T04:29:12.025Z,0.72
2023-02-18T04:30:12.051Z,1.11
2023-02-18T04:31:12.125Z,1
2023-02-18T04:32:12.026Z,1
2023-02-18T04:33:12.017Z,0.72
2023-02-18T04:34:12.030Z,0.83
2023-02-18T04:35:12.058Z,0.44
2023-02-18T04:36:12.034Z,0.72
2023-02-18T04:37:12.024Z,0.28
2023-02-18T04:38:12.029Z,0.72
2023-02-18T04:39:12.034Z,1
2023-02-18T04:40:12.034Z,0.83
2023-02-18T04:41:12.031Z,0.56
2023-02-18T04:42:12.037Z,0.72
2023-02-18T04:43:12.042Z,0.72
2023-02-18T04:44:12.033Z,0.11
2023-02-18T04:45:12.037Z,0.56
2023-02-18T04:46:12.181Z,0.56
2023-02-18T04:47:12.024Z,0.72
2023-02-18T04:48:12.035Z,0.72
2023-02-18T04:49:12.045Z,0.28
2023-02-18T04:50:12.045Z,0.72
2023-02-18T04:51:12.078Z,0.56
2023-02-18T04:52:12.032Z,0.72
2023-02-18T04:53:12.046Z,0.56
2023-02-18T04:54:12.037Z,0.83
2023-02-18T04:55:12.050Z,0.72
2023-02-18T04:56:12.049Z,1.22
2023-02-18T04:57:12.034Z,1.11
2023-02-18T04:58:12.047Z,1.39
2023-02-18T04:59:12.045Z,1.22
2023-02-18T05:00:12.060Z,0.78
2023-02-18T05:01:12.057Z,0.94
2023-02-18T05:02:12.054Z,0.72
2023-02-18T05:03:12.048Z,0.89
2023-02-18T05:04:12.110Z,1.06
2023-02-18T05:05:12.072Z,0.78
2023-02-18T05:06:12.048Z,0.61
2023-02-18T05:07:12.076Z,0.56
2023-02-18T05:08:12.056Z,0.72
2023-02-18T05:09:12.061Z,0.28
2023-02-18T05:10:12.064Z,0.11
2023-02-18T05:11:12.068Z,0.56
2023-02-18T05:12:12.063Z,0.28
2023-02-18T05:13:12.061Z,0.44
2023-02-18T05:14:12.053Z,0.28
2023-02-18T05:15:12.074Z,0.11
2023-02-18T05:16:12.432Z,0.28
2023-02-18T05:17:12.067Z,0.5
2023-02-18T05:18:12.065Z,0.56
2023-02-18T05:19:12.122Z,0.11
2023-02-18T05:20:12.063Z,0.06
2023-02-18T05:21:12.086Z,0.33
2023-02-18T05:22:12.066Z,0.28
2023-02-18T05:23:12.099Z,0.11
2023-02-18T05:24:12.060Z,0.11
2023-02-18T05:25:12.092Z,0.39
2023-02-18T05:26:12.057Z,0.17
2023-02-18T05:27:12.068Z,-0.17
2023-02-18T05:28:12.086Z,0.22
2023-02-18T05:29:12.081Z,0
2023-02-18T05:30:12.110Z,0
2023-02-18T05:31:12.167Z,-0.22
2023-02-18T05:32:12.077Z,-0.28
2023-02-18T05:33:12.071Z,-0.39
2023-02-18T05:34:12.080Z,0.11
2023-02-18T05:35:12.070Z,-0.33
2023-02-18T05:36:12.068Z,0
2023-02-18T05:37:12.067Z,0.11
2023-02-18T05:38:12.088Z,-0.06
2023-02-18T05:39:12.091Z,-0.22
2023-02-18T05:40:12.075Z,-0.39
2023-02-18T05:41:12.065Z,-0.61
2023-02-18T05:42:12.077Z,-0.56
2023-02-18T05:43:12.081Z,-0.61
2023-02-18T05:44:12.087Z,-0.28
2023-02-18T05:45:12.069Z,-0.39
2023-02-18T05:46:12.096Z,-0.56
2023-02-18T05:47:12.083Z,-0.39
2023-02-18T05:48:12.078Z,-0.56
2023-02-18T05:49:12.071Z,-0.39
2023-02-18T05:50:12.076Z,-0.17
2023-02-18T05:51:12.087Z,-0.56
2023-02-18T05:52:12.063Z,-0.06
2023-02-18T05:53:12.076Z,-0.39
2023-02-18T05:54:12.077Z,-0.83
2023-02-18T05:55:12.110Z,-0.83
2023-02-18T05:56:12.074Z,-0.83
2023-02-18T05:57:12.077Z,-0.67
2023-02-18T05:58:12.082Z,-0.61
2023-02-18T05:59:12.080Z,-0.83
2023-02-18T06:00:12.086Z,-0.83
2023-02-18T06:01:12.079Z,-0.83
2023-02-18T06:02:12.084Z,-0.83
2023-02-18T06:03:12.077Z,-0.67
2023-02-18T06:04:12.068Z,-0.17
2023-02-18T06:05:12.069Z,-0.39
2023-02-18T06:06:12.315Z,-0.67
2023-02-18T06:07:12.077Z,-0.67
2023-02-18T06:08:12.090Z,-1
2023-02-18T06:09:12.111Z,-0.83
2023-02-18T06:10:12.081Z,-0.83
2023-02-18T06:11:12.103Z,-0.56
2023-02-18T06:12:12.093Z,-0.67
2023-02-18T06:13:12.088Z,-0.28
2023-02-18T06:14:12.085Z,0.17
2023-02-18T06:15:12.084Z,-0.17
2023-02-18T06:16:12.286Z,-0.17
2023-02-18T06:17:12.086Z,-0.39
2023-02-18T06:18:12.090Z,-0.56
2023-02-18T06:19:12.088Z,-0.56
2023-02-18T06:20:12.097Z,-0.39
2023-02-18T06:21:12.081Z,-0.28
2023-02-18T06:22:12.074Z,-0.39
2023-02-18T06:23:12.088Z,-0.39
2023-02-18T06:24:12.086Z,-0.56
2023-02-18T06:25:12.082Z,-1
2023-02-18T06:26:12.091Z,-0.56
2023-02-18T06:27:12.128Z,-0.39
2023-02-18T06:28:12.099Z,-0.28
2023-02-18T06:29:12.088Z,-0.39
2023-02-18T06:30:12.121Z,-0.83
2023-02-18T06:31:12.215Z,-0.67
2023-02-18T06:32:12.210Z,-0.67
2023-02-18T06:33:12.087Z,-0.83
2023-02-18T06:34:12.076Z,-0.39
2023-02-18T06:35:12.106Z,-0.67
2023-02-18T06:36:12.339Z,-0.67
2023-02-18T06:37:12.094Z,-0.56
2023-02-18T06:38:12.087Z,-0.67
2023-02-18T06:39:12.088Z,-0.83
2023-02-18T06:40:12.108Z,-1
2023-02-18T06:41:12.099Z,-1
2023-02-18T06:42:12.088Z,-0.83
2023-02-18T06:43:12.142Z,-0.83
2023-02-18T06:44:12.102Z,-1
2023-02-18T06:45:12.138Z,-1
2023-02-18T06:46:12.218Z,-0.83
2023-02-18T06:47:12.086Z,-1
2023-02-18T06:48:12.099Z,-0.67
2023-02-18T06:49:12.115Z,-1.11
2023-02-18T06:50:12.107Z,-0.83
2023-02-18T06:51:12.111Z,-1
2023-02-18T06:52:12.103Z,-1.44
2023-02-18T06:53:12.096Z,-0.83
2023-02-18T06:54:12.102Z,-0.67
2023-02-18T06:55:12.108Z,-0.67
2023-02-18T06:56:12.108Z,-0.67
2023-02-18T06:57:12.093Z,-0.56
2023-02-18T06:58:12.111Z,-0.83
2023-02-18T06:59:12.123Z,-1.11
2023-02-18T07:00:12.102Z,-0.83
2023-02-18T07:01:12.168Z,-0.56
2023-02-18T07:02:12.102Z,-0.67
2023-02-18T07:03:12.094Z,-0.17
2023-02-18T07:04:12.129Z,-0.39
2023-02-18T07:05:12.106Z,-0.67
2023-02-18T07:06:12.149Z,0
2023-02-18T07:07:12.114Z,-0.17
2023-02-18T07:08:12.130Z,0
2023-02-18T07:09:12.103Z,-0.39
2023-02-18T07:10:12.111Z,-0.39
2023-02-18T07:11:12.102Z,-0.67
2023-02-18T07:12:12.106Z,-0.39
2023-02-18T07:13:12.112Z,-0.28
2023-02-18T07:14:12.118Z,-0.39
2023-02-18T07:15:12.129Z,-0.28
2023-02-18T07:16:12.372Z,0
2023-02-18T07:17:12.119Z,-0.17
2023-02-18T07:18:12.139Z,-0.28
2023-02-18T07:19:13.657Z,-0.28
2023-02-18T07:20:12.116Z,-0.17
2023-02-18T07:21:12.122Z,0.17
2023-02-18T07:22:12.123Z,0.17
2023-02-18T07:23:12.122Z,0.28
2023-02-18T07:24:12.115Z,0.44
2023-02-18T07:25:12.125Z,0.44
2023-02-18T07:26:12.130Z,0.89
2023-02-18T07:27:12.121Z,0.44
2023-02-18T07:28:12.129Z,-0.39
2023-02-18T07:29:12.133Z,-0.67
2023-02-18T07:30:12.193Z,-0.67
2023-02-18T07:31:12.272Z,-0.39
2023-02-18T07:32:12.194Z,-0.39
2023-02-18T07:33:12.120Z,-0.17
2023-02-18T07:34:12.128Z,0.28
2023-02-18T07:35:12.139Z,-0.17
2023-02-18T07:36:12.141Z,-0.28
2023-02-18T07:37:12.135Z,-0.17
2023-02-18T07:38:12.129Z,0.28
2023-02-18T07:39:12.146Z,-0.17
2023-02-18T07:40:12.138Z,-0.39
2023-02-18T07:41:12.135Z,-0.39
2023-02-18T07:42:12.149Z,-0.17
2023-02-18T07:43:12.139Z,-0.28
2023-02-18T07:44:12.143Z,-0.56
2023-02-18T07:45:12.147Z,-0.39
2023-02-18T07:46:12.458Z,-0.28
2023-02-18T07:47:12.160Z,0.17
2023-02-18T07:48:12.136Z,0
2023-02-18T07:49:12.148Z,-0.39
2023-02-18T07:50:12.145Z,0
2023-02-18T07:51:12.142Z,-0.17
2023-02-18T07:52:12.189Z,-0.17
2023-02-18T07:53:12.151Z,0
2023-02-18T07:54:12.143Z,0.17
2023-02-18T07:55:12.157Z,0.28
2023-02-18T07:56:12.143Z,0.44
2023-02-18T07:57:12.187Z,0.72
2023-02-18T07:58:12.153Z,0.89
2023-02-18T07:59:12.156Z,1.17
2023-02-18T08:00:12.157Z,0.89
2023-02-18T08:01:12.149Z,0.89
2023-02-18T08:02:12.164Z,0.44
2023-02-18T08:03:12.173Z,0.17
2023-02-18T08:04:12.189Z,1.33
2023-02-18T08:05:12.148Z,1.72
2023-02-18T08:06:12.170Z,1.72
2023-02-18T08:07:12.164Z,1.5
2023-02-18T08:08:12.161Z,1.33
2023-02-18T08:09:12.171Z,0.44
2023-02-18T08:10:12.181Z,0.28
2023-02-18T08:11:18.764Z,0.72
2023-02-18T08:12:12.174Z,0.89
2023-02-18T08:13:12.179Z,1.17
2023-02-18T08:14:12.170Z,0.89
2023-02-18T08:15:12.185Z,1.06
2023-02-18T08:16:12.239Z,1.72
2023-02-18T08:17:12.184Z,1.5
2023-02-18T08:18:12.172Z,1.06
2023-02-18T08:19:12.190Z,1.61
2023-02-18T08:20:12.170Z,1.33
2023-02-18T08:21:12.181Z,1.61
2023-02-18T08:22:12.182Z,1.33
2023-02-18T08:23:12.182Z,1.72
2023-02-18T08:24:12.182Z,1.89
2023-02-18T08:25:24.075Z,2
2023-02-18T08:26:12.180Z,1.72
2023-02-18T08:27:12.180Z,2.28
2023-02-18T08:28:12.186Z,2.89
2023-02-18T08:29:12.194Z,2.17
2023-02-18T08:30:12.217Z,1.33
2023-02-18T08:31:12.319Z,1.17
2023-02-18T08:32:12.211Z,1.33
2023-02-18T08:33:12.198Z,1.33
2023-02-18T08:34:12.189Z,1.72
2023-02-18T08:35:12.217Z,1.61
2023-02-18T08:36:12.200Z,1.33
2023-02-18T08:37:12.189Z,1.61
2023-02-18T08:38:12.205Z,1.33
2023-02-18T08:39:12.191Z,1.72
2023-02-18T08:40:12.193Z,1.17
2023-02-18T08:41:12.203Z,1.33
2023-02-18T08:42:12.190Z,1.72
2023-02-18T08:43:12.203Z,1.72
2023-02-18T08:44:12.201Z,2
2023-02-18T08:45:12.186Z,1.61
2023-02-18T08:46:13.113Z,1.72
2023-02-18T08:48:13.947Z,1.33
2023-02-18T08:48:15.841Z,0.89
2023-02-18T08:49:12.202Z,1.33
2023-02-18T08:50:12.205Z,1.5
2023-02-18T08:51:12.737Z,1.61
2023-02-18T08:52:12.209Z,1.61
2023-02-18T08:53:12.222Z,1.61
2023-02-18T08:54:12.215Z,1.33
2023-02-18T08:55:12.208Z,1.33
2023-02-18T08:56:12.209Z,1.72
2023-02-18T08:57:12.210Z,1.89
2023-02-18T08:58:12.208Z,2.28
2023-02-18T08:59:12.206Z,2.72
2023-02-18T09:00:13.974Z,2.17
2023-02-18T09:01:12.238Z,2.28
2023-02-18T09:02:12.209Z,1.72
2023-02-18T09:03:12.200Z,1.61
2023-02-18T09:04:12.250Z,1.72
2023-02-18T09:05:12.221Z,1.17
2023-02-18T09:06:12.203Z,1.33
2023-02-18T09:07:12.247Z,1.61
2023-02-18T09:08:12.218Z,1.17
2023-02-18T09:09:12.209Z,1.5
2023-02-18T09:10:12.209Z,1.72
2023-02-18T09:11:12.225Z,2
2023-02-18T09:12:12.218Z,1.89
2023-02-18T09:13:12.214Z,2
2023-02-18T09:14:12.220Z,2.44
2023-02-18T09:15:12.226Z,2.28
2023-02-18T09:16:12.288Z,2.17
2023-02-18T09:17:12.222Z,2
2023-02-18T09:18:12.228Z,2
2023-02-18T09:19:12.213Z,2.44
2023-02-18T09:20:12.225Z,2.61
2023-02-18T09:21:12.243Z,2.89
2023-02-18T09:22:12.229Z,3
2023-02-18T09:23:12.249Z,2.61
2023-02-18T09:24:12.226Z,3
2023-02-18T09:25:12.240Z,2.89
2023-02-18T09:26:12.259Z,3
2023-02-18T09:27:12.233Z,3.72
2023-02-18T09:28:12.232Z,3.83
2023-02-18T09:29:12.226Z,4.28
2023-02-18T09:30:12.335Z,5.17
2023-02-18T09:31:12.770Z,5.17
2023-02-18T09:32:14.465Z,3.83
2023-02-18T09:33:12.244Z,3.72
2023-02-18T09:34:12.237Z,3.17
2023-02-18T09:35:12.236Z,3.33
2023-02-18T09:36:12.257Z,3.44
2023-02-18T09:37:12.248Z,3.56
2023-02-18T09:38:12.242Z,3.72
2023-02-18T09:39:12.262Z,3.83
2023-02-18T09:40:14.639Z,4.28
2023-02-18T09:41:12.241Z,4.72
2023-02-18T09:42:12.252Z,4.28
2023-02-18T09:43:12.236Z,4
2023-02-18T09:44:12.243Z,4.44
2023-02-18T09:45:12.250Z,4.72
2023-02-18T09:46:12.314Z,4.44
2023-02-18T09:47:12.247Z,4.89
2023-02-18T09:48:12.238Z,4.89
2023-02-18T09:49:12.268Z,5
2023-02-18T09:50:12.239Z,5.44
2023-02-18T09:51:12.247Z,5.83
2023-02-18T09:52:12.243Z,5.72
2023-02-18T09:53:12.234Z,5.17
2023-02-18T09:54:12.249Z,4.89
2023-02-18T09:55:12.265Z,5.17
2023-02-18T09:56:12.241Z,4.72
2023-02-18T09:57:12.242Z,4.44
2023-02-18T09:58:12.250Z,4.44
2023-02-18T09:59:12.254Z,4.44
2023-02-18T10:00:12.253Z,5.33
2023-02-18T10:01:12.453Z,5.17
2023-02-18T10:02:12.261Z,5.83
2023-02-18T10:03:12.251Z,6.11
2023-02-18T10:04:12.253Z,6.28
2023-02-18T10:05:12.272Z,6.28
2023-02-18T10:06:12.454Z,6.39
2023-02-18T10:07:12.259Z,5.44
2023-02-18T10:08:12.260Z,5.33
2023-02-18T10:09:12.254Z,4.89
2023-02-18T10:10:12.259Z,4.72
2023-02-18T10:11:12.278Z,4.89
2023-02-18T10:12:12.253Z,5
2023-02-18T10:13:12.292Z,5.5
2023-02-18T10:14:12.280Z,6.28
2023-02-18T10:15:12.268Z,6.72
2023-02-18T10:16:12.682Z,6.72
2023-02-18T10:17:12.285Z,6.39
2023-02-18T10:18:12.275Z,5.83
2023-02-18T10:19:12.288Z,6
2023-02-18T10:20:12.274Z,5.94
2023-02-18T10:21:12.272Z,6
2023-02-18T10:22:14.664Z,6.17
2023-02-18T10:23:12.268Z,6.06
2023-02-18T10:24:12.273Z,6.56
2023-02-18T10:25:12.268Z,6.39
2023-02-18T10:26:12.262Z,7
2023-02-18T10:27:12.300Z,7.17
2023-02-18T10:28:12.285Z,7.17
2023-02-18T10:29:12.278Z,6.78
2023-02-18T10:30:12.319Z,6.5
2023-02-18T10:31:12.608Z,6.67
2023-02-18T10:32:12.412Z,7.11
2023-02-18T10:33:12.281Z,7.22
2023-02-18T10:34:12.280Z,7.11
2023-02-18T10:35:12.291Z,7.11
2023-02-18T10:36:12.276Z,7.5
2023-02-18T10:37:12.281Z,8.39
2023-02-18T10:38:12.272Z,9
2023-02-18T10:39:12.282Z,8.61
2023-02-18T10:40:12.291Z,8.78
2023-02-18T10:41:12.287Z,8.78
2023-02-18T10:42:12.301Z,8.78
2023-02-18T10:43:12.314Z,8.94
2023-02-18T10:44:12.299Z,9.61
2023-02-18T10:45:12.307Z,9.39
2023-02-18T10:46:13.684Z,9.39
2023-02-18T10:47:12.283Z,9.22
2023-02-18T10:48:12.293Z,9.94
2023-02-18T10:49:12.306Z,9.67
2023-02-18T10:50:12.287Z,9.94
2023-02-18T10:51:12.290Z,10.94
2023-02-18T10:52:12.299Z,11.28
2023-02-18T10:53:12.294Z,11.06
2023-02-18T10:54:12.304Z,11.22
2023-02-18T10:55:12.305Z,9.94
2023-02-18T10:56:12.313Z,8.94
2023-02-18T10:57:12.290Z,8.94
2023-02-18T10:58:12.297Z,9.5
2023-02-18T10:59:12.345Z,10.11
2023-02-18T11:00:12.294Z,10.56
2023-02-18T11:01:12.297Z,10.39
2023-02-18T11:02:12.299Z,9.67
2023-02-18T11:03:12.326Z,8.94
2023-02-18T11:04:12.316Z,9.22
2023-02-18T11:05:12.301Z,8.94
2023-02-18T11:06:12.305Z,10.11
2023-02-18T11:07:12.314Z,9.67
2023-02-18T11:08:12.306Z,9.39
2023-02-18T11:09:12.318Z,9.22
2023-02-18T11:10:12.318Z,9.39
2023-02-18T11:11:12.315Z,9.5
2023-02-18T11:12:12.300Z,10.22
2023-02-18T11:13:12.307Z,9.78
2023-02-18T11:14:12.313Z,9.5
2023-02-18T11:15:12.333Z,9.67
2023-02-18T11:16:12.353Z,10.11
2023-02-18T11:17:12.301Z,10.11
2023-02-18T11:18:12.313Z,9.94
2023-02-18T11:19:12.303Z,9.67
2023-02-18T11:20:12.305Z,9.78
2023-02-18T11:21:12.306Z,9.5
2023-02-18T11:22:12.304Z,9.67
2023-02-18T11:23:12.320Z,9.67
2023-02-18T11:24:12.291Z,9.78
2023-02-18T11:25:12.304Z,9.67
2023-02-18T11:26:12.305Z,9.67
2023-02-18T11:27:14.502Z,9.67
2023-02-18T11:28:12.320Z,9.39
2023-02-18T11:29:12.310Z,9.67
2023-02-18T11:30:12.337Z,9.67
2023-02-18T11:31:12.627Z,10.11
2023-02-18T11:32:12.461Z,10.39
2023-02-18T11:33:12.304Z,9.67
2023-02-18T11:34:12.309Z,10.56
2023-02-18T11:35:12.311Z,11.11
2023-02-18T11:36:12.310Z,11.83
2023-02-18T11:37:12.298Z,11.94
2023-02-18T11:38:12.306Z,13.06
2023-02-18T11:39:12.304Z,12.44
2023-02-18T11:40:12.304Z,12.28
2023-02-18T11:41:12.311Z,12.11
2023-02-18T11:42:12.305Z,11.83
2023-02-18T11:43:12.318Z,11.83
2023-02-18T11:44:12.311Z,12.28
2023-02-18T11:45:12.299Z,11.11
2023-02-18T11:46:12.317Z,11.44
2023-02-18T11:47:12.348Z,11.61
2023-02-18T11:48:12.311Z,11.94
2023-02-18T11:49:12.303Z,12.72
2023-02-18T11:50:12.310Z,12.56
2023-02-18T11:51:12.525Z,12.44
2023-02-18T11:52:12.313Z,13.17
2023-02-18T11:53:12.311Z,13.33
2023-02-18T11:54:12.307Z,12.89
2023-02-18T11:55:12.310Z,11.83
2023-02-18T11:56:12.316Z,12.72
2023-02-18T11:57:12.319Z,13.33
2023-02-18T11:58:12.318Z,13.17
2023-02-18T11:59:12.320Z,12.72
2023-02-18T12:00:12.322Z,13.06
2023-02-18T12:01:12.328Z,13.67
2023-02-18T12:02:12.372Z,13.33
2023-02-18T12:03:12.338Z,13.17
2023-02-18T12:04:12.329Z,12.44
2023-02-18T12:05:12.380Z,12.28
2023-02-18T12:06:12.319Z,12.44
2023-02-18T12:07:12.340Z,11.83
2023-02-18T12:08:12.328Z,11.44
2023-02-18T12:09:12.339Z,11
2023-02-18T12:10:12.336Z,11.11
2023-02-18T12:11:12.318Z,11.44
2023-02-18T12:12:12.330Z,11.11
2023-02-18T12:13:12.333Z,11.44
2023-02-18T12:14:12.330Z,11
2023-02-18T12:15:12.335Z,11.44
2023-02-18T12:16:12.368Z,11
2023-02-18T12:17:12.333Z,11.17
2023-02-18T12:18:12.339Z,11.61
2023-02-18T12:19:12.355Z,11
2023-02-18T12:20:12.368Z,11.06
2023-02-18T12:21:12.339Z,11.61
2023-02-18T12:22:12.344Z,11.06
2023-02-18T12:23:12.336Z,11.61
2023-02-18T12:24:12.339Z,11.61
2023-02-18T12:25:12.339Z,11.89
2023-02-18T12:26:12.352Z,11.61
2023-02-18T12:27:12.345Z,11.5
2023-02-18T12:28:12.347Z,11.78
2023-02-18T12:29:12.347Z,12
2023-02-18T12:30:12.503Z,12.5
2023-02-18T12:31:12.537Z,12
2023-02-18T12:32:12.407Z,12.33
2023-02-18T12:33:12.351Z,12
2023-02-18T12:34:12.347Z,12.33
2023-02-18T12:35:12.477Z,12.33
2023-02-18T12:36:12.363Z,13.22
2023-02-18T12:37:12.357Z,13.39
2023-02-18T12:38:12.348Z,12.78
2023-02-18T12:39:12.359Z,12.94
2023-02-18T12:40:12.419Z,13.22
2023-02-18T12:41:12.354Z,13.39
2023-02-18T12:42:12.364Z,13.67
2023-02-18T12:43:12.359Z,13.11
2023-02-18T12:44:12.361Z,13.11
2023-02-18T12:45:12.355Z,12.78
2023-02-18T12:47:12.359Z,15.44
2023-02-18T12:48:12.367Z,15.28
2023-02-18T12:49:12.374Z,14.61
2023-02-18T12:50:12.391Z,12.5
2023-02-18T12:51:12.390Z,12
2023-02-18T12:52:12.364Z,12
2023-02-18T12:53:12.363Z,12.61
2023-02-18T12:54:12.359Z,12.61
2023-02-18T12:55:12.364Z,12.61
2023-02-18T12:56:12.368Z,13.11
2023-02-18T12:57:12.365Z,13.39
2023-02-18T12:58:13.388Z,13.67
2023-02-18T12:59:12.383Z,14.61
2023-02-18T13:00:12.391Z,14.28
2023-02-18T13:01:12.453Z,13.22
2023-02-18T13:02:12.368Z,12.5
2023-02-18T13:03:12.394Z,13.56
2023-02-18T13:04:12.364Z,12.5
2023-02-18T13:05:12.364Z,12.5
2023-02-18T13:06:12.378Z,13.39
2023-02-18T13:07:12.407Z,13.83
2023-02-18T13:08:12.379Z,13.22
2023-02-18T13:09:12.375Z,13.11
2023-02-18T13:10:12.455Z,13.83
2023-02-18T13:11:12.378Z,14.11
2023-02-18T13:12:12.383Z,13.39
2023-02-18T13:13:12.376Z,13.83
2023-02-18T13:14:12.398Z,13.39
2023-02-18T13:15:12.377Z,13.56
2023-02-18T13:16:12.500Z,13.67
2023-02-18T13:17:12.388Z,14
2023-02-18T13:18:12.385Z,13.83
2023-02-18T13:19:12.381Z,14.61